sensor_id;sensor_type;location;lat;lon;timestamp;P1;durP1;ratioP1;P2;durP2;ratioP2
25125;SDS011;13106;50.808;5.670;2023-07-30T00:02:00;5.90;;;3.10;;
25125;SDS011;13106;50.808;5.670;2023-07-30T00:04:26;6.13;;;3.35;;
25125;SDS011;13106;50.808;5.670;2023-07-30T00:06:52;7.38;;;3.80;;
25125;SDS011;13106;50.808;5.670;2023-07-30T00:09:18;9.63;;;3.72;;
25125;SDS011;13106;50.808;5.670;2023-07-30T00:11:44;4.85;;;3.38;;
25125;SDS011;13106;50.808;5.670;2023-07-30T00:14:10;7.22;;;3.70;;
25125;SDS011;13106;50.808;5.670;2023-07-30T00:16:36;7.20;;;3.63;;
25125;SDS011;13106;50.808;5.670;2023-07-30T00:19:02;9.90;;;3.67;;
25125;SDS011;13106;50.808;5.670;2023-07-30T00:21:28;7.20;;;3.08;;
25125;SDS011;13106;50.808;5.670;2023-07-30T00:23:54;5.10;;;3.40;;
25125;SDS011;13106;50.808;5.670;2023-07-30T00:26:21;10.70;;;3.80;;
25125;SDS011;13106;50.808;5.670;2023-07-30T00:28:48;8.88;;;3.70;;
25125;SDS011;13106;50.808;5.670;2023-07-30T00:31:14;5.82;;;3.55;;
25125;SDS011;13106;50.808;5.670;2023-07-30T00:33:40;5.18;;;3.30;;
25125;SDS011;13106;50.808;5.670;2023-07-30T00:36:06;5.72;;;3.33;;
25125;SDS011;13106;50.808;5.670;2023-07-30T00:38:33;5.90;;;3.15;;
25125;SDS011;13106;50.808;5.670;2023-07-30T00:40:58;7.82;;;3.10;;
25125;SDS011;13106;50.808;5.670;2023-07-30T00:43:25;8.20;;;3.20;;
25125;SDS011;13106;50.808;5.670;2023-07-30T00:45:51;13.55;;;3.78;;
25125;SDS011;13106;50.808;5.670;2023-07-30T00:48:17;6.43;;;3.22;;
25125;SDS011;13106;50.808;5.670;2023-07-30T00:50:43;8.05;;;3.72;;
25125;SDS011;13106;50.808;5.670;2023-07-30T00:53:09;8.63;;;3.63;;
25125;SDS011;13106;50.808;5.670;2023-07-30T00:55:37;6.72;;;3.38;;
25125;SDS011;13106;50.808;5.670;2023-07-30T00:58:03;5.95;;;3.33;;
25125;SDS011;13106;50.808;5.670;2023-07-30T01:00:30;7.35;;;3.05;;
25125;SDS011;13106;50.808;5.670;2023-07-30T01:02:57;8.20;;;3.17;;
25125;SDS011;13106;50.808;5.670;2023-07-30T01:05:23;8.77;;;3.47;;
25125;SDS011;13106;50.808;5.670;2023-07-30T01:07:49;4.03;;;2.92;;
25125;SDS011;13106;50.808;5.670;2023-07-30T01:10:15;7.10;;;2.85;;
25125;SDS011;13106;50.808;5.670;2023-07-30T01:12:41;7.28;;;2.90;;
25125;SDS011;13106;50.808;5.670;2023-07-30T01:15:08;10.40;;;3.20;;
25125;SDS011;13106;50.808;5.670;2023-07-30T01:17:35;6.93;;;3.00;;
25125;SDS011;13106;50.808;5.670;2023-07-30T01:20:01;10.25;;;3.42;;
25125;SDS011;13106;50.808;5.670;2023-07-30T01:22:27;6.45;;;2.80;;
25125;SDS011;13106;50.808;5.670;2023-07-30T01:24:53;5.97;;;2.78;;
25125;SDS011;13106;50.808;5.670;2023-07-30T01:27:24;7.15;;;3.08;;
25125;SDS011;13106;50.808;5.670;2023-07-30T01:29:51;7.68;;;2.92;;
25125;SDS011;13106;50.808;5.670;2023-07-30T01:34:47;8.88;;;3.00;;
25125;SDS011;13106;50.808;5.670;2023-07-30T01:37:14;10.30;;;3.05;;
25125;SDS011;13106;50.808;5.670;2023-07-30T01:39:41;8.90;;;3.00;;
25125;SDS011;13106;50.808;5.670;2023-07-30T01:42:08;9.88;;;3.00;;
25125;SDS011;13106;50.808;5.670;2023-07-30T01:44:34;6.53;;;2.80;;
25125;SDS011;13106;50.808;5.670;2023-07-30T01:47:00;7.22;;;3.05;;
25125;SDS011;13106;50.808;5.670;2023-07-30T01:49:26;7.07;;;2.90;;
25125;SDS011;13106;50.808;5.670;2023-07-30T01:51:52;9.00;;;3.03;;
25125;SDS011;13106;50.808;5.670;2023-07-30T01:54:18;7.55;;;3.42;;
25125;SDS011;13106;50.808;5.670;2023-07-30T01:56:44;8.65;;;3.25;;
25125;SDS011;13106;50.808;5.670;2023-07-30T01:59:10;7.93;;;3.58;;
25125;SDS011;13106;50.808;5.670;2023-07-30T02:01:36;8.38;;;3.20;;
25125;SDS011;13106;50.808;5.670;2023-07-30T02:04:02;8.05;;;3.47;;
25125;SDS011;13106;50.808;5.670;2023-07-30T02:06:28;7.35;;;3.70;;
25125;SDS011;13106;50.808;5.670;2023-07-30T02:08:54;7.18;;;3.33;;
25125;SDS011;13106;50.808;5.670;2023-07-30T02:11:20;11.15;;;3.38;;
25125;SDS011;13106;50.808;5.670;2023-07-30T02:13:46;7.43;;;3.25;;
25125;SDS011;13106;50.808;5.670;2023-07-30T02:16:12;6.65;;;2.85;;
25125;SDS011;13106;50.808;5.670;2023-07-30T02:18:39;7.03;;;3.05;;
25125;SDS011;13106;50.808;5.670;2023-07-30T02:21:05;9.85;;;3.20;;
25125;SDS011;13106;50.808;5.670;2023-07-30T02:23:31;5.28;;;2.90;;
25125;SDS011;13106;50.808;5.670;2023-07-30T02:25:57;8.15;;;3.45;;
25125;SDS011;13106;50.808;5.670;2023-07-30T02:28:23;8.43;;;3.38;;
25125;SDS011;13106;50.808;5.670;2023-07-30T02:30:49;4.28;;;3.03;;
25125;SDS011;13106;50.808;5.670;2023-07-30T02:33:15;5.82;;;3.10;;
25125;SDS011;13106;50.808;5.670;2023-07-30T02:35:42;4.50;;;2.90;;
25125;SDS011;13106;50.808;5.670;2023-07-30T02:38:08;7.43;;;2.55;;
25125;SDS011;13106;50.808;5.670;2023-07-30T02:40:35;6.25;;;2.70;;
25125;SDS011;13106;50.808;5.670;2023-07-30T02:43:01;5.78;;;2.10;;
25125;SDS011;13106;50.808;5.670;2023-07-30T02:45:27;9.18;;;1.80;;
25125;SDS011;13106;50.808;5.670;2023-07-30T02:47:53;4.80;;;2.30;;
25125;SDS011;13106;50.808;5.670;2023-07-30T02:50:19;3.58;;;1.98;;
25125;SDS011;13106;50.808;5.670;2023-07-30T02:52:45;5.28;;;1.92;;
25125;SDS011;13106;50.808;5.670;2023-07-30T02:55:11;4.93;;;2.03;;
25125;SDS011;13106;50.808;5.670;2023-07-30T02:57:37;7.15;;;1.40;;
25125;SDS011;13106;50.808;5.670;2023-07-30T03:00:03;6.25;;;4.20;;
25125;SDS011;13106;50.808;5.670;2023-07-30T03:02:29;7.03;;;1.52;;
25125;SDS011;13106;50.808;5.670;2023-07-30T03:04:55;5.18;;;1.33;;
25125;SDS011;13106;50.808;5.670;2023-07-30T03:07:22;7.53;;;1.70;;
25125;SDS011;13106;50.808;5.670;2023-07-30T03:09:48;5.47;;;1.33;;
25125;SDS011;13106;50.808;5.670;2023-07-30T03:12:14;4.18;;;1.50;;
25125;SDS011;13106;50.808;5.670;2023-07-30T03:14:40;5.30;;;1.35;;
25125;SDS011;13106;50.808;5.670;2023-07-30T03:17:06;5.63;;;1.60;;
25125;SDS011;13106;50.808;5.670;2023-07-30T03:19:32;5.28;;;1.33;;
25125;SDS011;13106;50.808;5.670;2023-07-30T03:21:58;3.33;;;1.52;;
25125;SDS011;13106;50.808;5.670;2023-07-30T03:24:24;7.90;;;1.60;;
25125;SDS011;13106;50.808;5.670;2023-07-30T03:26:50;5.30;;;1.40;;
25125;SDS011;13106;50.808;5.670;2023-07-30T03:29:16;6.55;;;1.30;;
25125;SDS011;13106;50.808;5.670;2023-07-30T03:31:42;5.47;;;1.45;;
25125;SDS011;13106;50.808;5.670;2023-07-30T03:34:08;6.32;;;1.30;;
25125;SDS011;13106;50.808;5.670;2023-07-30T03:36:34;8.82;;;7.60;;
25125;SDS011;13106;50.808;5.670;2023-07-30T03:39:00;4.97;;;1.30;;
25125;SDS011;13106;50.808;5.670;2023-07-30T03:41:26;6.82;;;1.58;;
25125;SDS011;13106;50.808;5.670;2023-07-30T03:43:52;6.80;;;2.05;;
25125;SDS011;13106;50.808;5.670;2023-07-30T03:46:18;5.18;;;1.20;;
25125;SDS011;13106;50.808;5.670;2023-07-30T03:48:45;10.45;;;1.48;;
25125;SDS011;13106;50.808;5.670;2023-07-30T03:51:11;5.70;;;1.80;;
25125;SDS011;13106;50.808;5.670;2023-07-30T03:53:38;7.28;;;1.65;;
25125;SDS011;13106;50.808;5.670;2023-07-30T03:56:04;7.20;;;2.00;;
25125;SDS011;13106;50.808;5.670;2023-07-30T03:58:30;7.07;;;1.98;;
25125;SDS011;13106;50.808;5.670;2023-07-30T04:00:56;5.88;;;1.52;;
25125;SDS011;13106;50.808;5.670;2023-07-30T04:03:22;5.38;;;1.67;;
25125;SDS011;13106;50.808;5.670;2023-07-30T04:05:48;6.30;;;1.55;;
25125;SDS011;13106;50.808;5.670;2023-07-30T04:08:15;5.03;;;1.52;;
25125;SDS011;13106;50.808;5.670;2023-07-30T04:10:41;5.85;;;1.98;;
25125;SDS011;13106;50.808;5.670;2023-07-30T04:13:07;6.05;;;1.50;;
25125;SDS011;13106;50.808;5.670;2023-07-30T04:15:33;4.95;;;1.55;;
25125;SDS011;13106;50.808;5.670;2023-07-30T04:17:59;6.25;;;1.40;;
25125;SDS011;13106;50.808;5.670;2023-07-30T04:20:25;6.43;;;1.45;;
25125;SDS011;13106;50.808;5.670;2023-07-30T04:22:51;3.72;;;1.20;;
25125;SDS011;13106;50.808;5.670;2023-07-30T04:25:17;3.33;;;1.45;;
25125;SDS011;13106;50.808;5.670;2023-07-30T04:27:43;4.70;;;1.40;;
25125;SDS011;13106;50.808;5.670;2023-07-30T04:30:10;1.80;;;1.20;;
25125;SDS011;13106;50.808;5.670;2023-07-30T04:32:36;5.72;;;1.40;;
25125;SDS011;13106;50.808;5.670;2023-07-30T04:35:02;6.65;;;1.35;;
25125;SDS011;13106;50.808;5.670;2023-07-30T04:37:28;5.43;;;2.70;;
25125;SDS011;13106;50.808;5.670;2023-07-30T04:39:54;6.25;;;1.40;;
25125;SDS011;13106;50.808;5.670;2023-07-30T04:42:20;3.92;;;1.70;;
25125;SDS011;13106;50.808;5.670;2023-07-30T04:44:46;5.75;;;1.73;;
25125;SDS011;13106;50.808;5.670;2023-07-30T04:47:12;4.80;;;1.70;;
25125;SDS011;13106;50.808;5.670;2023-07-30T04:49:38;3.80;;;1.52;;
25125;SDS011;13106;50.808;5.670;2023-07-30T04:52:06;6.38;;;1.30;;
25125;SDS011;13106;50.808;5.670;2023-07-30T04:54:32;7.10;;;1.33;;
25125;SDS011;13106;50.808;5.670;2023-07-30T04:56:59;4.15;;;1.60;;
25125;SDS011;13106;50.808;5.670;2023-07-30T04:59:25;7.97;;;1.48;;
25125;SDS011;13106;50.808;5.670;2023-07-30T05:01:51;5.15;;;1.40;;
25125;SDS011;13106;50.808;5.670;2023-07-30T05:04:17;4.15;;;1.40;;
25125;SDS011;13106;50.808;5.670;2023-07-30T05:06:43;5.20;;;1.40;;
25125;SDS011;13106;50.808;5.670;2023-07-30T05:09:09;5.20;;;1.50;;
25125;SDS011;13106;50.808;5.670;2023-07-30T05:11:36;2.88;;;1.23;;
25125;SDS011;13106;50.808;5.670;2023-07-30T05:14:02;6.00;;;1.40;;
25125;SDS011;13106;50.808;5.670;2023-07-30T05:16:28;4.65;;;1.42;;
25125;SDS011;13106;50.808;5.670;2023-07-30T05:18:55;4.00;;;1.52;;
25125;SDS011;13106;50.808;5.670;2023-07-30T05:21:21;3.85;;;1.17;;
25125;SDS011;13106;50.808;5.670;2023-07-30T05:23:47;4.82;;;1.55;;
25125;SDS011;13106;50.808;5.670;2023-07-30T05:26:13;4.28;;;1.35;;
25125;SDS011;13106;50.808;5.670;2023-07-30T05:28:39;6.82;;;2.10;;
25125;SDS011;13106;50.808;5.670;2023-07-30T05:31:05;4.93;;;1.35;;
25125;SDS011;13106;50.808;5.670;2023-07-30T05:33:31;4.80;;;1.60;;
25125;SDS011;13106;50.808;5.670;2023-07-30T05:35:57;6.25;;;1.88;;
25125;SDS011;13106;50.808;5.670;2023-07-30T05:38:23;3.35;;;1.50;;
25125;SDS011;13106;50.808;5.670;2023-07-30T05:40:49;3.30;;;1.67;;
25125;SDS011;13106;50.808;5.670;2023-07-30T05:43:15;6.15;;;1.77;;
25125;SDS011;13106;50.808;5.670;2023-07-30T05:45:41;5.40;;;1.63;;
25125;SDS011;13106;50.808;5.670;2023-07-30T05:48:07;11.95;;;2.63;;
25125;SDS011;13106;50.808;5.670;2023-07-30T05:50:33;7.50;;;1.50;;
25125;SDS011;13106;50.808;5.670;2023-07-30T05:52:59;8.70;;;1.70;;
25125;SDS011;13106;50.808;5.670;2023-07-30T05:55:25;9.70;;;1.98;;
25125;SDS011;13106;50.808;5.670;2023-07-30T05:57:51;5.07;;;1.48;;
25125;SDS011;13106;50.808;5.670;2023-07-30T06:00:18;14.90;;;2.13;;
25125;SDS011;13106;50.808;5.670;2023-07-30T06:02:44;5.22;;;1.80;;
25125;SDS011;13106;50.808;5.670;2023-07-30T06:05:10;6.57;;;1.60;;
25125;SDS011;13106;50.808;5.670;2023-07-30T06:07:36;9.27;;;1.63;;
25125;SDS011;13106;50.808;5.670;2023-07-30T06:10:02;7.10;;;2.10;;
25125;SDS011;13106;50.808;5.670;2023-07-30T06:12:29;8.13;;;2.55;;
25125;SDS011;13106;50.808;5.670;2023-07-30T06:14:55;7.75;;;1.80;;
25125;SDS011;13106;50.808;5.670;2023-07-30T06:17:21;9.63;;;1.77;;
25125;SDS011;13106;50.808;5.670;2023-07-30T06:19:47;10.45;;;2.00;;
25125;SDS011;13106;50.808;5.670;2023-07-30T06:22:13;10.32;;;2.13;;
25125;SDS011;13106;50.808;5.670;2023-07-30T06:24:39;5.97;;;2.10;;
25125;SDS011;13106;50.808;5.670;2023-07-30T06:27:05;12.50;;;2.22;;
25125;SDS011;13106;50.808;5.670;2023-07-30T06:29:31;11.52;;;3.03;;
25125;SDS011;13106;50.808;5.670;2023-07-30T06:31:57;12.02;;;1.92;;
25125;SDS011;13106;50.808;5.670;2023-07-30T06:34:23;10.63;;;2.38;;
25125;SDS011;13106;50.808;5.670;2023-07-30T06:36:49;6.43;;;1.95;;
25125;SDS011;13106;50.808;5.670;2023-07-30T06:39:15;9.00;;;2.10;;
25125;SDS011;13106;50.808;5.670;2023-07-30T06:41:41;13.48;;;2.40;;
25125;SDS011;13106;50.808;5.670;2023-07-30T06:44:07;11.32;;;2.50;;
25125;SDS011;13106;50.808;5.670;2023-07-30T06:46:33;7.82;;;2.00;;
25125;SDS011;13106;50.808;5.670;2023-07-30T06:48:59;7.93;;;2.17;;
25125;SDS011;13106;50.808;5.670;2023-07-30T06:51:26;9.77;;;2.25;;
25125;SDS011;13106;50.808;5.670;2023-07-30T06:53:52;12.57;;;2.35;;
25125;SDS011;13106;50.808;5.670;2023-07-30T06:56:18;8.98;;;2.00;;
25125;SDS011;13106;50.808;5.670;2023-07-30T06:58:44;14.05;;;2.67;;
25125;SDS011;13106;50.808;5.670;2023-07-30T07:01:10;9.82;;;2.40;;
25125;SDS011;13106;50.808;5.670;2023-07-30T07:03:36;10.93;;;2.30;;
25125;SDS011;13106;50.808;5.670;2023-07-30T07:06:02;7.13;;;2.20;;
25125;SDS011;13106;50.808;5.670;2023-07-30T07:08:29;10.95;;;2.10;;
25125;SDS011;13106;50.808;5.670;2023-07-30T07:10:55;11.30;;;2.15;;
25125;SDS011;13106;50.808;5.670;2023-07-30T07:13:21;9.50;;;2.22;;
25125;SDS011;13106;50.808;5.670;2023-07-30T07:15:47;10.85;;;2.72;;
25125;SDS011;13106;50.808;5.670;2023-07-30T07:18:13;12.73;;;2.58;;
25125;SDS011;13106;50.808;5.670;2023-07-30T07:20:40;12.23;;;2.38;;
25125;SDS011;13106;50.808;5.670;2023-07-30T07:23:06;10.65;;;2.40;;
25125;SDS011;13106;50.808;5.670;2023-07-30T07:25:32;12.60;;;2.35;;
25125;SDS011;13106;50.808;5.670;2023-07-30T07:27:58;8.88;;;1.80;;
25125;SDS011;13106;50.808;5.670;2023-07-30T07:30:24;11.95;;;2.33;;
25125;SDS011;13106;50.808;5.670;2023-07-30T07:32:50;12.10;;;2.25;;
25125;SDS011;13106;50.808;5.670;2023-07-30T07:35:16;9.32;;;2.00;;
25125;SDS011;13106;50.808;5.670;2023-07-30T07:37:42;11.30;;;2.05;;
25125;SDS011;13106;50.808;5.670;2023-07-30T07:40:08;8.45;;;2.22;;
25125;SDS011;13106;50.808;5.670;2023-07-30T07:42:35;11.82;;;2.53;;
25125;SDS011;13106;50.808;5.670;2023-07-30T07:45:01;10.02;;;1.92;;
25125;SDS011;13106;50.808;5.670;2023-07-30T07:47:27;12.88;;;2.50;;
25125;SDS011;13106;50.808;5.670;2023-07-30T07:49:53;12.38;;;2.42;;
25125;SDS011;13106;50.808;5.670;2023-07-30T07:52:19;10.65;;;2.55;;
25125;SDS011;13106;50.808;5.670;2023-07-30T07:54:45;14.10;;;2.45;;
25125;SDS011;13106;50.808;5.670;2023-07-30T07:57:12;12.95;;;1.98;;
25125;SDS011;13106;50.808;5.670;2023-07-30T07:59:38;10.55;;;2.20;;
25125;SDS011;13106;50.808;5.670;2023-07-30T08:02:06;12.13;;;2.45;;
25125;SDS011;13106;50.808;5.670;2023-07-30T08:04:32;14.43;;;2.40;;
25125;SDS011;13106;50.808;5.670;2023-07-30T08:06:58;14.95;;;3.05;;
25125;SDS011;13106;50.808;5.670;2023-07-30T08:09:28;13.43;;;2.45;;
25125;SDS011;13106;50.808;5.670;2023-07-30T08:11:54;12.73;;;3.00;;
25125;SDS011;13106;50.808;5.670;2023-07-30T08:14:20;9.93;;;2.05;;
25125;SDS011;13106;50.808;5.670;2023-07-30T08:16:46;10.95;;;2.63;;
25125;SDS011;13106;50.808;5.670;2023-07-30T08:19:12;13.05;;;2.75;;
25125;SDS011;13106;50.808;5.670;2023-07-30T08:21:38;12.55;;;1.98;;
25125;SDS011;13106;50.808;5.670;2023-07-30T08:24:04;8.27;;;2.45;;
25125;SDS011;13106;50.808;5.670;2023-07-30T08:26:31;15.38;;;2.67;;
25125;SDS011;13106;50.808;5.670;2023-07-30T08:28:57;11.60;;;2.63;;
25125;SDS011;13106;50.808;5.670;2023-07-30T08:31:24;13.23;;;2.75;;
25125;SDS011;13106;50.808;5.670;2023-07-30T08:33:50;9.88;;;2.15;;
25125;SDS011;13106;50.808;5.670;2023-07-30T08:36:16;7.00;;;1.98;;
25125;SDS011;13106;50.808;5.670;2023-07-30T08:38:42;7.95;;;2.25;;
25125;SDS011;13106;50.808;5.670;2023-07-30T08:41:08;7.38;;;2.00;;
25125;SDS011;13106;50.808;5.670;2023-07-30T08:43:34;12.63;;;2.35;;
25125;SDS011;13106;50.808;5.670;2023-07-30T08:46:00;14.57;;;2.42;;
25125;SDS011;13106;50.808;5.670;2023-07-30T08:48:27;13.05;;;2.17;;
25125;SDS011;13106;50.808;5.670;2023-07-30T08:50:56;10.75;;;2.17;;
25125;SDS011;13106;50.808;5.670;2023-07-30T08:53:24;10.45;;;2.03;;
25125;SDS011;13106;50.808;5.670;2023-07-30T08:55:51;10.10;;;2.05;;
25125;SDS011;13106;50.808;5.670;2023-07-30T08:58:18;9.98;;;1.95;;
25125;SDS011;13106;50.808;5.670;2023-07-30T09:00:44;8.07;;;1.55;;
25125;SDS011;13106;50.808;5.670;2023-07-30T09:03:11;10.32;;;2.50;;
25125;SDS011;13106;50.808;5.670;2023-07-30T09:05:38;7.07;;;1.90;;
25125;SDS011;13106;50.808;5.670;2023-07-30T09:08:04;7.63;;;1.70;;
25125;SDS011;13106;50.808;5.670;2023-07-30T09:10:31;8.60;;;1.90;;
25125;SDS011;13106;50.808;5.670;2023-07-30T09:12:57;8.20;;;1.67;;
25125;SDS011;13106;50.808;5.670;2023-07-30T09:15:30;8.25;;;1.73;;
25125;SDS011;13106;50.808;5.670;2023-07-30T09:17:57;11.93;;;1.95;;
25125;SDS011;13106;50.808;5.670;2023-07-30T09:20:23;6.13;;;1.70;;
25125;SDS011;13106;50.808;5.670;2023-07-30T09:22:49;9.43;;;1.80;;
25125;SDS011;13106;50.808;5.670;2023-07-30T09:25:17;7.20;;;1.60;;
25125;SDS011;13106;50.808;5.670;2023-07-30T09:30:11;10.70;;;1.52;;
25125;SDS011;13106;50.808;5.670;2023-07-30T09:32:37;5.35;;;1.42;;
25125;SDS011;13106;50.808;5.670;2023-07-30T09:35:04;5.47;;;2.20;;
25125;SDS011;13106;50.808;5.670;2023-07-30T09:37:31;8.73;;;1.55;;
25125;SDS011;13106;50.808;5.670;2023-07-30T09:39:57;12.07;;;2.10;;
25125;SDS011;13106;50.808;5.670;2023-07-30T09:42:27;7.03;;;1.75;;
25125;SDS011;13106;50.808;5.670;2023-07-30T09:44:53;10.18;;;1.60;;
25125;SDS011;13106;50.808;5.670;2023-07-30T09:47:19;9.40;;;1.60;;
25125;SDS011;13106;50.808;5.670;2023-07-30T09:49:45;9.82;;;1.38;;
25125;SDS011;13106;50.808;5.670;2023-07-30T09:52:11;12.68;;;1.58;;
25125;SDS011;13106;50.808;5.670;2023-07-30T09:54:37;8.35;;;1.60;;
25125;SDS011;13106;50.808;5.670;2023-07-30T09:57:04;9.80;;;1.80;;
25125;SDS011;13106;50.808;5.670;2023-07-30T09:59:30;8.48;;;1.73;;
25125;SDS011;13106;50.808;5.670;2023-07-30T10:01:56;15.45;;;1.77;;
25125;SDS011;13106;50.808;5.670;2023-07-30T10:04:23;6.07;;;1.77;;
25125;SDS011;13106;50.808;5.670;2023-07-30T10:06:56;7.15;;;1.85;;
25125;SDS011;13106;50.808;5.670;2023-07-30T10:09:25;3.30;;;1.27;;
25125;SDS011;13106;50.808;5.670;2023-07-30T10:11:53;7.63;;;1.80;;
25125;SDS011;13106;50.808;5.670;2023-07-30T10:14:21;8.20;;;1.58;;
25125;SDS011;13106;50.808;5.670;2023-07-30T10:16:55;6.53;;;1.50;;
25125;SDS011;13106;50.808;5.670;2023-07-30T10:19:25;7.50;;;1.45;;
25125;SDS011;13106;50.808;5.670;2023-07-30T10:21:54;5.18;;;1.23;;
25125;SDS011;13106;50.808;5.670;2023-07-30T10:24:25;7.43;;;1.40;;
25125;SDS011;13106;50.808;5.670;2023-07-30T10:26:52;6.57;;;1.58;;
25125;SDS011;13106;50.808;5.670;2023-07-30T10:29:22;8.15;;;1.55;;
25125;SDS011;13106;50.808;5.670;2023-07-30T10:34:15;5.55;;;1.60;;
25125;SDS011;13106;50.808;5.670;2023-07-30T10:36:42;9.05;;;1.88;;
25125;SDS011;13106;50.808;5.670;2023-07-30T10:39:13;9.23;;;1.77;;
25125;SDS011;13106;50.808;5.670;2023-07-30T10:41:39;7.45;;;1.58;;
25125;SDS011;13106;50.808;5.670;2023-07-30T10:44:05;11.55;;;1.42;;
25125;SDS011;13106;50.808;5.670;2023-07-30T10:46:31;5.50;;;1.48;;
25125;SDS011;13106;50.808;5.670;2023-07-30T10:48:57;7.55;;;1.50;;
25125;SDS011;13106;50.808;5.670;2023-07-30T10:51:23;8.65;;;1.77;;
25125;SDS011;13106;50.808;5.670;2023-07-30T10:53:50;8.10;;;1.63;;
25125;SDS011;13106;50.808;5.670;2023-07-30T10:56:17;6.05;;;1.50;;
25125;SDS011;13106;50.808;5.670;2023-07-30T10:58:48;5.25;;;1.17;;
25125;SDS011;13106;50.808;5.670;2023-07-30T11:01:15;9.48;;;1.48;;
25125;SDS011;13106;50.808;5.670;2023-07-30T11:03:41;4.13;;;1.40;;
25125;SDS011;13106;50.808;5.670;2023-07-30T11:06:07;9.05;;;1.67;;
25125;SDS011;13106;50.808;5.670;2023-07-30T11:11:03;7.53;;;1.60;;
25125;SDS011;13106;50.808;5.670;2023-07-30T11:13:29;5.38;;;1.67;;
25125;SDS011;13106;50.808;5.670;2023-07-30T11:15:55;4.97;;;1.40;;
25125;SDS011;13106;50.808;5.670;2023-07-30T11:18:21;5.55;;;1.50;;
25125;SDS011;13106;50.808;5.670;2023-07-30T11:20:47;7.68;;;1.73;;
25125;SDS011;13106;50.808;5.670;2023-07-30T11:23:21;5.90;;;1.38;;
25125;SDS011;13106;50.808;5.670;2023-07-30T11:25:48;6.72;;;1.50;;
25125;SDS011;13106;50.808;5.670;2023-07-30T11:28:15;7.93;;;1.70;;
25125;SDS011;13106;50.808;5.670;2023-07-30T11:30:53;7.85;;;1.42;;
25125;SDS011;13106;50.808;5.670;2023-07-30T11:33:19;9.93;;;1.50;;
25125;SDS011;13106;50.808;5.670;2023-07-30T11:35:45;6.10;;;1.58;;
25125;SDS011;13106;50.808;5.670;2023-07-30T11:38:11;9.95;;;1.80;;
25125;SDS011;13106;50.808;5.670;2023-07-30T11:40:38;5.25;;;1.23;;
25125;SDS011;13106;50.808;5.670;2023-07-30T11:43:05;5.32;;;1.33;;
25125;SDS011;13106;50.808;5.670;2023-07-30T11:45:31;5.72;;;1.45;;
25125;SDS011;13106;50.808;5.670;2023-07-30T11:48:07;6.38;;;1.20;;
25125;SDS011;13106;50.808;5.670;2023-07-30T11:50:49;5.85;;;1.40;;
25125;SDS011;13106;50.808;5.670;2023-07-30T11:53:16;5.32;;;1.50;;
25125;SDS011;13106;50.808;5.670;2023-07-30T11:55:43;4.78;;;1.48;;
25125;SDS011;13106;50.808;5.670;2023-07-30T11:58:09;3.80;;;1.20;;
25125;SDS011;13106;50.808;5.670;2023-07-30T12:00:36;9.38;;;1.40;;
25125;SDS011;13106;50.808;5.670;2023-07-30T12:03:03;6.07;;;1.45;;
25125;SDS011;13106;50.808;5.670;2023-07-30T12:05:34;5.13;;;1.20;;
25125;SDS011;13106;50.808;5.670;2023-07-30T12:10:28;3.55;;;1.35;;
25125;SDS011;13106;50.808;5.670;2023-07-30T12:13:10;5.75;;;1.50;;
25125;SDS011;13106;50.808;5.670;2023-07-30T12:15:37;8.07;;;1.40;;
25125;SDS011;13106;50.808;5.670;2023-07-30T12:18:03;5.25;;;1.33;;
25125;SDS011;13106;50.808;5.670;2023-07-30T12:20:29;6.70;;;1.17;;
25125;SDS011;13106;50.808;5.670;2023-07-30T12:22:55;6.53;;;1.50;;
25125;SDS011;13106;50.808;5.670;2023-07-30T12:25:21;3.72;;;1.20;;
25125;SDS011;13106;50.808;5.670;2023-07-30T12:27:47;4.30;;;1.30;;
25125;SDS011;13106;50.808;5.670;2023-07-30T12:30:13;8.43;;;1.20;;
25125;SDS011;13106;50.808;5.670;2023-07-30T12:32:39;6.78;;;1.35;;
25125;SDS011;13106;50.808;5.670;2023-07-30T12:35:05;5.60;;;1.38;;
25125;SDS011;13106;50.808;5.670;2023-07-30T12:37:31;6.25;;;1.30;;
25125;SDS011;13106;50.808;5.670;2023-07-30T12:40:00;6.90;;;1.50;;
25125;SDS011;13106;50.808;5.670;2023-07-30T12:42:26;7.78;;;1.60;;
25125;SDS011;13106;50.808;5.670;2023-07-30T12:44:52;7.07;;;1.60;;
25125;SDS011;13106;50.808;5.670;2023-07-30T12:47:18;7.82;;;1.20;;
25125;SDS011;13106;50.808;5.670;2023-07-30T12:49:44;4.00;;;1.77;;
25125;SDS011;13106;50.808;5.670;2023-07-30T12:52:10;7.57;;;1.40;;
25125;SDS011;13106;50.808;5.670;2023-07-30T12:54:36;4.45;;;1.40;;
25125;SDS011;13106;50.808;5.670;2023-07-30T12:57:02;4.47;;;1.20;;
25125;SDS011;13106;50.808;5.670;2023-07-30T12:59:28;5.65;;;1.30;;
25125;SDS011;13106;50.808;5.670;2023-07-30T13:01:56;4.93;;;1.27;;
25125;SDS011;13106;50.808;5.670;2023-07-30T13:04:23;4.45;;;1.30;;
25125;SDS011;13106;50.808;5.670;2023-07-30T13:06:52;7.97;;;1.60;;
25125;SDS011;13106;50.808;5.670;2023-07-30T13:09:18;4.53;;;1.15;;
25125;SDS011;13106;50.808;5.670;2023-07-30T13:11:44;3.60;;;1.00;;
25125;SDS011;13106;50.808;5.670;2023-07-30T13:14:11;5.32;;;1.10;;
25125;SDS011;13106;50.808;5.670;2023-07-30T13:16:37;7.60;;;1.50;;
25125;SDS011;13106;50.808;5.670;2023-07-30T13:19:03;3.95;;;1.23;;
25125;SDS011;13106;50.808;5.670;2023-07-30T13:21:29;3.33;;;1.20;;
25125;SDS011;13106;50.808;5.670;2023-07-30T13:23:55;4.68;;;1.20;;
25125;SDS011;13106;50.808;5.670;2023-07-30T13:26:21;7.00;;;1.25;;
25125;SDS011;13106;50.808;5.670;2023-07-30T13:28:47;4.43;;;1.10;;
25125;SDS011;13106;50.808;5.670;2023-07-30T13:31:13;6.85;;;1.25;;
25125;SDS011;13106;50.808;5.670;2023-07-30T13:33:39;5.15;;;1.13;;
25125;SDS011;13106;50.808;5.670;2023-07-30T13:36:05;4.53;;;1.45;;
25125;SDS011;13106;50.808;5.670;2023-07-30T13:38:33;5.57;;;1.50;;
25125;SDS011;13106;50.808;5.670;2023-07-30T13:40:59;6.50;;;1.55;;
25125;SDS011;13106;50.808;5.670;2023-07-30T13:43:25;5.18;;;1.30;;
25125;SDS011;13106;50.808;5.670;2023-07-30T13:45:51;4.32;;;1.17;;
25125;SDS011;13106;50.808;5.670;2023-07-30T13:48:17;6.60;;;1.77;;
25125;SDS011;13106;50.808;5.670;2023-07-30T13:50:43;7.72;;;1.60;;
25125;SDS011;13106;50.808;5.670;2023-07-30T13:53:09;5.65;;;1.20;;
25125;SDS011;13106;50.808;5.670;2023-07-30T13:55:37;7.03;;;1.77;;
25125;SDS011;13106;50.808;5.670;2023-07-30T13:58:03;10.60;;;1.77;;
25125;SDS011;13106;50.808;5.670;2023-07-30T14:00:29;6.97;;;1.63;;
25125;SDS011;13106;50.808;5.670;2023-07-30T14:02:55;4.80;;;1.60;;
25125;SDS011;13106;50.808;5.670;2023-07-30T14:05:21;7.50;;;2.10;;
25125;SDS011;13106;50.808;5.670;2023-07-30T14:07:48;4.07;;;1.30;;
25125;SDS011;13106;50.808;5.670;2023-07-30T14:10:16;6.03;;;1.50;;
25125;SDS011;13106;50.808;5.670;2023-07-30T14:12:42;7.10;;;1.60;;
25125;SDS011;13106;50.808;5.670;2023-07-30T14:15:08;4.57;;;1.20;;
25125;SDS011;13106;50.808;5.670;2023-07-30T14:17:34;6.63;;;1.70;;
25125;SDS011;13106;50.808;5.670;2023-07-30T14:20:00;5.35;;;1.27;;
25125;SDS011;13106;50.808;5.670;2023-07-30T14:22:27;6.28;;;1.40;;
25125;SDS011;13106;50.808;5.670;2023-07-30T14:24:53;8.45;;;1.80;;
25125;SDS011;13106;50.808;5.670;2023-07-30T14:27:19;6.70;;;1.60;;
25125;SDS011;13106;50.808;5.670;2023-07-30T14:29:45;3.65;;;1.20;;
25125;SDS011;13106;50.808;5.670;2023-07-30T14:32:11;4.55;;;1.30;;
25125;SDS011;13106;50.808;5.670;2023-07-30T14:34:37;5.78;;;1.35;;
25125;SDS011;13106;50.808;5.670;2023-07-30T14:37:03;2.50;;;1.10;;
25125;SDS011;13106;50.808;5.670;2023-07-30T14:39:29;4.80;;;1.20;;
25125;SDS011;13106;50.808;5.670;2023-07-30T14:41:55;6.43;;;1.38;;
25125;SDS011;13106;50.808;5.670;2023-07-30T14:44:21;5.85;;;1.20;;
25125;SDS011;13106;50.808;5.670;2023-07-30T14:46:47;5.68;;;1.27;;
25125;SDS011;13106;50.808;5.670;2023-07-30T14:49:13;4.45;;;1.40;;
25125;SDS011;13106;50.808;5.670;2023-07-30T14:51:39;4.60;;;1.10;;
25125;SDS011;13106;50.808;5.670;2023-07-30T14:54:05;3.58;;;1.23;;